sensor_id;sensor_type;location;lat;lon;timestamp;P1;durP1;ratioP1;P2;durP2;ratioP2
71423;SDS011;59240;51.370;-0.486;2023-11-19T00:03:09;29.52;;;4.60;;
71423;SDS011;59240;51.370;-0.486;2023-11-19T00:08:07;22.85;;;3.08;;
71423;SDS011;59240;51.370;-0.486;2023-11-19T00:13:05;27.45;;;5.32;;
71423;SDS011;59240;51.370;-0.486;2023-11-19T00:18:03;20.88;;;4.90;;
71423;SDS011;59240;51.370;-0.486;2023-11-19T00:23:01;24.65;;;4.15;;
71423;SDS011;59240;51.370;-0.486;2023-11-19T00:27:58;23.33;;;3.65;;
71423;SDS011;59240;51.370;-0.486;2023-11-19T00:32:56;28.67;;;4.70;;
71423;SDS011;59240;51.370;-0.486;2023-11-19T00:37:54;30.08;;;4.47;;
71423;SDS011;59240;51.370;-0.486;2023-11-19T00:42:51;26.42;;;4.65;;
71423;SDS011;59240;51.370;-0.486;2023-11-19T00:47:48;21.33;;;3.53;;
71423;SDS011;59240;51.370;-0.486;2023-11-19T00:52:45;25.63;;;3.97;;
71423;SDS011;59240;51.370;-0.486;2023-11-19T00:57:42;29.98;;;4.10;;
71423;SDS011;59240;51.370;-0.486;2023-11-19T01:02:39;19.10;;;3.10;;
71423;SDS011;59240;51.370;-0.486;2023-11-19T01:07:36;23.80;;;3.85;;
71423;SDS011;59240;51.370;-0.486;2023-11-19T01:12:33;27.45;;;3.28;;
71423;SDS011;59240;51.370;-0.486;2023-11-19T01:17:30;23.10;;;3.22;;
71423;SDS011;59240;51.370;-0.486;2023-11-19T01:22:28;28.65;;;4.32;;
71423;SDS011;59240;51.370;-0.486;2023-11-19T01:27:25;19.45;;;3.20;;
71423;SDS011;59240;51.370;-0.486;2023-11-19T01:32:21;15.35;;;4.18;;
71423;SDS011;59240;51.370;-0.486;2023-11-19T01:37:20;26.02;;;4.05;;
71423;SDS011;59240;51.370;-0.486;2023-11-19T01:42:17;22.10;;;3.55;;
71423;SDS011;59240;51.370;-0.486;2023-11-19T01:47:14;19.38;;;3.30;;
71423;SDS011;59240;51.370;-0.486;2023-11-19T01:52:11;26.13;;;3.42;;
71423;SDS011;59240;51.370;-0.486;2023-11-19T01:57:08;16.60;;;2.78;;
71423;SDS011;59240;51.370;-0.486;2023-11-19T02:02:06;34.80;;;4.95;;
71423;SDS011;59240;51.370;-0.486;2023-11-19T02:07:03;14.82;;;3.30;;
71423;SDS011;59240;51.370;-0.486;2023-11-19T02:12:00;27.67;;;3.17;;
71423;SDS011;59240;51.370;-0.486;2023-11-19T02:17:01;26.95;;;4.45;;
71423;SDS011;59240;51.370;-0.486;2023-11-19T02:21:58;23.10;;;3.03;;
71423;SDS011;59240;51.370;-0.486;2023-11-19T02:27:08;27.77;;;5.88;;
71423;SDS011;59240;51.370;-0.486;2023-11-19T02:32:11;34.58;;;4.38;;
71423;SDS011;59240;51.370;-0.486;2023-11-19T02:37:10;27.05;;;3.90;;
71423;SDS011;59240;51.370;-0.486;2023-11-19T02:42:08;21.65;;;4.68;;
71423;SDS011;59240;51.370;-0.486;2023-11-19T02:47:06;24.40;;;3.28;;
71423;SDS011;59240;51.370;-0.486;2023-11-19T02:52:04;23.65;;;3.85;;
71423;SDS011;59240;51.370;-0.486;2023-11-19T02:57:02;38.83;;;4.65;;
71423;SDS011;59240;51.370;-0.486;2023-11-19T03:02:01;22.10;;;3.40;;
71423;SDS011;59240;51.370;-0.486;2023-11-19T03:06:58;25.45;;;2.90;;
71423;SDS011;59240;51.370;-0.486;2023-11-19T03:11:55;28.83;;;4.93;;
71423;SDS011;59240;51.370;-0.486;2023-11-19T03:16:51;23.88;;;3.33;;
71423;SDS011;59240;51.370;-0.486;2023-11-19T03:21:48;19.23;;;2.25;;
71423;SDS011;59240;51.370;-0.486;2023-11-19T03:26:48;23.83;;;3.72;;
71423;SDS011;59240;51.370;-0.486;2023-11-19T03:31:46;20.17;;;2.67;;
71423;SDS011;59240;51.370;-0.486;2023-11-19T03:36:43;20.23;;;3.35;;
71423;SDS011;59240;51.370;-0.486;2023-11-19T03:41:40;20.88;;;2.13;;
71423;SDS011;59240;51.370;-0.486;2023-11-19T03:46:38;11.52;;;1.90;;
71423;SDS011;59240;51.370;-0.486;2023-11-19T03:51:34;26.00;;;3.63;;
71423;SDS011;59240;51.370;-0.486;2023-11-19T03:56:31;19.30;;;3.55;;
71423;SDS011;59240;51.370;-0.486;2023-11-19T04:01:29;21.80;;;3.20;;
71423;SDS011;59240;51.370;-0.486;2023-11-19T04:06:26;24.27;;;4.00;;
71423;SDS011;59240;51.370;-0.486;2023-11-19T04:11:22;23.35;;;3.70;;
71423;SDS011;59240;51.370;-0.486;2023-11-19T04:16:19;25.75;;;4.03;;
71423;SDS011;59240;51.370;-0.486;2023-11-19T04:21:23;25.52;;;3.45;;
71423;SDS011;59240;51.370;-0.486;2023-11-19T04:26:20;18.90;;;2.55;;
71423;SDS011;59240;51.370;-0.486;2023-11-19T04:31:17;16.67;;;3.33;;
71423;SDS011;59240;51.370;-0.486;2023-11-19T04:36:13;22.00;;;3.55;;
71423;SDS011;59240;51.370;-0.486;2023-11-19T04:41:15;21.27;;;4.07;;
71423;SDS011;59240;51.370;-0.486;2023-11-19T04:46:12;14.57;;;2.72;;
71423;SDS011;59240;51.370;-0.486;2023-11-19T04:51:09;22.48;;;3.55;;
71423;SDS011;59240;51.370;-0.486;2023-11-19T04:56:10;14.65;;;3.05;;
71423;SDS011;59240;51.370;-0.486;2023-11-19T05:01:12;19.25;;;3.30;;
71423;SDS011;59240;51.370;-0.486;2023-11-19T05:06:12;25.13;;;3.42;;
71423;SDS011;59240;51.370;-0.486;2023-11-19T05:11:09;26.48;;;3.17;;
71423;SDS011;59240;51.370;-0.486;2023-11-19T05:16:08;22.98;;;3.83;;
71423;SDS011;59240;51.370;-0.486;2023-11-19T05:21:06;23.50;;;4.35;;
71423;SDS011;59240;51.370;-0.486;2023-11-19T05:26:05;26.02;;;3.53;;
71423;SDS011;59240;51.370;-0.486;2023-11-19T05:31:04;22.67;;;3.13;;
71423;SDS011;59240;51.370;-0.486;2023-11-19T05:36:01;21.50;;;3.70;;
71423;SDS011;59240;51.370;-0.486;2023-11-19T05:40:59;20.98;;;3.65;;
71423;SDS011;59240;51.370;-0.486;2023-11-19T05:45:56;16.90;;;3.33;;
71423;SDS011;59240;51.370;-0.486;2023-11-19T05:50:53;25.52;;;3.67;;
71423;SDS011;59240;51.370;-0.486;2023-11-19T05:55:51;16.88;;;3.08;;
71423;SDS011;59240;51.370;-0.486;2023-11-19T06:00:56;17.33;;;2.88;;
71423;SDS011;59240;51.370;-0.486;2023-11-19T06:05:53;5.15;;;1.52;;
71423;SDS011;59240;51.370;-0.486;2023-11-19T06:10:53;21.55;;;4.13;;
71423;SDS011;59240;51.370;-0.486;2023-11-19T06:15:49;19.33;;;2.85;;
71423;SDS011;59240;51.370;-0.486;2023-11-19T06:20:47;21.17;;;3.05;;
71423;SDS011;59240;51.370;-0.486;2023-11-19T06:25:44;18.02;;;2.70;;
71423;SDS011;59240;51.370;-0.486;2023-11-19T06:30:41;19.63;;;2.40;;
71423;SDS011;59240;51.370;-0.486;2023-11-19T06:35:38;17.90;;;2.83;;
71423;SDS011;59240;51.370;-0.486;2023-11-19T06:40:35;23.17;;;2.97;;
71423;SDS011;59240;51.370;-0.486;2023-11-19T06:45:32;19.52;;;3.20;;
71423;SDS011;59240;51.370;-0.486;2023-11-19T06:50:29;9.98;;;1.92;;
71423;SDS011;59240;51.370;-0.486;2023-11-19T06:55:26;28.77;;;3.55;;
71423;SDS011;59240;51.370;-0.486;2023-11-19T07:00:23;21.98;;;3.88;;
71423;SDS011;59240;51.370;-0.486;2023-11-19T07:05:20;21.63;;;3.00;;
71423;SDS011;59240;51.370;-0.486;2023-11-19T07:10:17;17.38;;;2.50;;
71423;SDS011;59240;51.370;-0.486;2023-11-19T07:15:14;21.25;;;2.90;;
71423;SDS011;59240;51.370;-0.486;2023-11-19T07:20:14;12.23;;;1.35;;
71423;SDS011;59240;51.370;-0.486;2023-11-19T07:25:15;13.43;;;3.72;;
71423;SDS011;59240;51.370;-0.486;2023-11-19T07:30:14;13.70;;;2.40;;
71423;SDS011;59240;51.370;-0.486;2023-11-19T07:35:11;13.85;;;2.83;;
71423;SDS011;59240;51.370;-0.486;2023-11-19T07:40:08;13.70;;;1.67;;
71423;SDS011;59240;51.370;-0.486;2023-11-19T07:45:05;15.68;;;3.13;;
71423;SDS011;59240;51.370;-0.486;2023-11-19T07:50:03;16.13;;;3.35;;
71423;SDS011;59240;51.370;-0.486;2023-11-19T07:55:00;18.15;;;2.63;;
71423;SDS011;59240;51.370;-0.486;2023-11-19T07:59:58;16.42;;;2.72;;
71423;SDS011;59240;51.370;-0.486;2023-11-19T08:04:54;10.10;;;1.90;;
71423;SDS011;59240;51.370;-0.486;2023-11-19T08:09:51;9.10;;;2.30;;
71423;SDS011;59240;51.370;-0.486;2023-11-19T08:14:50;9.82;;;1.85;;
71423;SDS011;59240;51.370;-0.486;2023-11-19T08:19:48;12.35;;;1.83;;
71423;SDS011;59240;51.370;-0.486;2023-11-19T08:24:47;13.63;;;2.15;;
71423;SDS011;59240;51.370;-0.486;2023-11-19T08:29:43;5.63;;;1.60;;
71423;SDS011;59240;51.370;-0.486;2023-11-19T08:34:42;19.00;;;2.22;;
71423;SDS011;59240;51.370;-0.486;2023-11-19T08:39:39;6.93;;;1.88;;
71423;SDS011;59240;51.370;-0.486;2023-11-19T08:44:36;17.55;;;2.40;;
71423;SDS011;59240;51.370;-0.486;2023-11-19T08:49:33;18.20;;;2.28;;
71423;SDS011;59240;51.370;-0.486;2023-11-19T08:54:30;14.10;;;2.13;;
71423;SDS011;59240;51.370;-0.486;2023-11-19T08:59:27;8.80;;;2.22;;
71423;SDS011;59240;51.370;-0.486;2023-11-19T09:04:24;6.95;;;1.33;;
71423;SDS011;59240;51.370;-0.486;2023-11-19T09:09:21;16.33;;;2.38;;
71423;SDS011;59240;51.370;-0.486;2023-11-19T09:14:18;16.98;;;2.10;;
71423;SDS011;59240;51.370;-0.486;2023-11-19T09:19:15;17.55;;;2.90;;
71423;SDS011;59240;51.370;-0.486;2023-11-19T09:24:12;16.58;;;2.85;;
71423;SDS011;59240;51.370;-0.486;2023-11-19T09:29:12;20.40;;;2.83;;
71423;SDS011;59240;51.370;-0.486;2023-11-19T09:34:11;14.45;;;3.10;;
71423;SDS011;59240;51.370;-0.486;2023-11-19T09:39:07;16.92;;;2.45;;
71423;SDS011;59240;51.370;-0.486;2023-11-19T09:44:05;19.38;;;2.55;;
71423;SDS011;59240;51.370;-0.486;2023-11-19T09:49:01;20.20;;;2.50;;
71423;SDS011;59240;51.370;-0.486;2023-11-19T09:54:00;12.38;;;2.70;;
71423;SDS011;59240;51.370;-0.486;2023-11-19T09:58:57;16.10;;;2.88;;
71423;SDS011;59240;51.370;-0.486;2023-11-19T10:03:54;13.82;;;2.50;;
71423;SDS011;59240;51.370;-0.486;2023-11-19T10:08:52;14.80;;;2.72;;
71423;SDS011;59240;51.370;-0.486;2023-11-19T10:13:49;12.13;;;3.08;;
71423;SDS011;59240;51.370;-0.486;2023-11-19T10:18:49;12.27;;;2.47;;
71423;SDS011;59240;51.370;-0.486;2023-11-19T10:23:47;11.30;;;2.20;;
71423;SDS011;59240;51.370;-0.486;2023-11-19T10:28:54;6.82;;;1.65;;
71423;SDS011;59240;51.370;-0.486;2023-11-19T10:34:00;15.43;;;2.55;;
71423;SDS011;59240;51.370;-0.486;2023-11-19T10:39:02;10.57;;;1.95;;
71423;SDS011;59240;51.370;-0.486;2023-11-19T10:44:02;11.38;;;1.58;;
71423;SDS011;59240;51.370;-0.486;2023-11-19T10:48:58;15.02;;;1.50;;
71423;SDS011;59240;51.370;-0.486;2023-11-19T10:54:06;11.77;;;2.25;;
71423;SDS011;59240;51.370;-0.486;2023-11-19T10:59:03;12.70;;;1.77;;
71423;SDS011;59240;51.370;-0.486;2023-11-19T11:04:19;12.05;;;1.77;;
71423;SDS011;59240;51.370;-0.486;2023-11-19T11:09:19;9.68;;;2.75;;
71423;SDS011;59240;51.370;-0.486;2023-11-19T11:14:17;9.35;;;1.85;;
71423;SDS011;59240;51.370;-0.486;2023-11-19T11:19:16;15.02;;;1.92;;
71423;SDS011;59240;51.370;-0.486;2023-11-19T11:24:25;9.65;;;2.30;;
71423;SDS011;59240;51.370;-0.486;2023-11-19T11:35:24;17.63;;;1.80;;
71423;SDS011;59240;51.370;-0.486;2023-11-19T11:40:38;12.15;;;2.08;;
71423;SDS011;59240;51.370;-0.486;2023-11-19T11:45:35;9.77;;;1.52;;
71423;SDS011;59240;51.370;-0.486;2023-11-19T11:56:04;12.70;;;1.63;;
71423;SDS011;59240;51.370;-0.486;2023-11-19T12:01:04;5.90;;;1.58;;
71423;SDS011;59240;51.370;-0.486;2023-11-19T12:06:04;7.40;;;1.45;;
71423;SDS011;59240;51.370;-0.486;2023-11-19T12:11:01;11.70;;;1.65;;
71423;SDS011;59240;51.370;-0.486;2023-11-19T12:20:57;9.13;;;1.77;;
71423;SDS011;59240;51.370;-0.486;2023-11-19T12:25:58;9.35;;;1.50;;
71423;SDS011;59240;51.370;-0.486;2023-11-19T12:31:07;5.72;;;1.33;;
71423;SDS011;59240;51.370;-0.486;2023-11-19T12:36:07;7.22;;;1.42;;
71423;SDS011;59240;51.370;-0.486;2023-11-19T12:41:05;7.60;;;1.20;;
71423;SDS011;59240;51.370;-0.486;2023-11-19T12:46:03;12.13;;;1.80;;
71423;SDS011;59240;51.370;-0.486;2023-11-19T12:51:21;12.27;;;2.22;;
71423;SDS011;59240;51.370;-0.486;2023-11-19T12:56:18;11.80;;;1.65;;
71423;SDS011;59240;51.370;-0.486;2023-11-19T13:01:16;11.43;;;1.80;;
71423;SDS011;59240;51.370;-0.486;2023-11-19T13:06:14;6.32;;;1.88;;
71423;SDS011;59240;51.370;-0.486;2023-11-19T13:11:12;7.70;;;1.30;;
71423;SDS011;59240;51.370;-0.486;2023-11-19T13:16:09;1.90;;;0.85;;
71423;SDS011;59240;51.370;-0.486;2023-11-19T13:21:06;7.55;;;1.35;;
71423;SDS011;59240;51.370;-0.486;2023-11-19T13:26:03;8.25;;;1.20;;
71423;SDS011;59240;51.370;-0.486;2023-11-19T13:31:00;9.80;;;1.80;;
71423;SDS011;59240;51.370;-0.486;2023-11-19T13:35:57;8.10;;;1.75;;
71423;SDS011;59240;51.370;-0.486;2023-11-19T13:40:54;6.13;;;1.50;;
71423;SDS011;59240;51.370;-0.486;2023-11-19T13:45:51;8.25;;;1.35;;
71423;SDS011;59240;51.370;-0.486;2023-11-19T13:50:50;11.32;;;1.15;;
71423;SDS011;59240;51.370;-0.486;2023-11-19T13:55:47;8.48;;;1.33;;
71423;SDS011;59240;51.370;-0.486;2023-11-19T14:00:46;5.45;;;1.25;;
71423;SDS011;59240;51.370;-0.486;2023-11-19T14:05:43;7.65;;;1.23;;
71423;SDS011;59240;51.370;-0.486;2023-11-19T14:10:40;7.95;;;1.42;;
71423;SDS011;59240;51.370;-0.486;2023-11-19T14:15:37;6.93;;;1.00;;
71423;SDS011;59240;51.370;-0.486;2023-11-19T14:20:34;5.03;;;1.20;;
71423;SDS011;59240;51.370;-0.486;2023-11-19T14:25:32;1.90;;;0.52;;
71423;SDS011;59240;51.370;-0.486;2023-11-19T14:30:29;5.97;;;0.90;;
71423;SDS011;59240;51.370;-0.486;2023-11-19T14:35:26;6.50;;;1.02;;
71423;SDS011;59240;51.370;-0.486;2023-11-19T14:40:22;4.60;;;1.15;;
71423;SDS011;59240;51.370;-0.486;2023-11-19T14:45:38;6.43;;;0.70;;
71423;SDS011;59240;51.370;-0.486;2023-11-19T14:50:45;3.40;;;0.80;;
71423;SDS011;59240;51.370;-0.486;2023-11-19T14:55:41;7.32;;;0.98;;
71423;SDS011;59240;51.370;-0.486;2023-11-19T15:00:38;6.00;;;1.00;;
71423;SDS011;59240;51.370;-0.486;2023-11-19T15:05:35;7.47;;;1.10;;
71423;SDS011;59240;51.370;-0.486;2023-11-19T15:10:32;4.90;;;0.63;;
71423;SDS011;59240;51.370;-0.486;2023-11-19T15:15:29;4.45;;;0.95;;
71423;SDS011;59240;51.370;-0.486;2023-11-19T15:20:30;2.97;;;0.63;;
71423;SDS011;59240;51.370;-0.486;2023-11-19T15:25:27;7.35;;;1.05;;
71423;SDS011;59240;51.370;-0.486;2023-11-19T15:30:24;3.60;;;0.63;;
71423;SDS011;59240;51.370;-0.486;2023-11-19T15:35:23;1.92;;;0.50;;
71423;SDS011;59240;51.370;-0.486;2023-11-19T15:40:20;4.13;;;0.52;;
71423;SDS011;59240;51.370;-0.486;2023-11-19T15:45:17;4.13;;;0.80;;
71423;SDS011;59240;51.370;-0.486;2023-11-19T15:50:14;3.25;;;0.70;;
71423;SDS011;59240;51.370;-0.486;2023-11-19T15:55:11;5.20;;;0.70;;
71423;SDS011;59240;51.370;-0.486;2023-11-19T16:00:11;1.73;;;0.68;;
71423;SDS011;59240;51.370;-0.486;2023-11-19T16:05:08;3.60;;;0.70;;
71423;SDS011;59240;51.370;-0.486;2023-11-19T16:10:11;3.10;;;0.75;;
71423;SDS011;59240;51.370;-0.486;2023-11-19T16:15:09;2.47;;;0.73;;
71423;SDS011;59240;51.370;-0.486;2023-11-19T16:20:07;3.42;;;1.58;;
71423;SDS011;59240;51.370;-0.486;2023-11-19T16:25:07;3.80;;;0.70;;
71423;SDS011;59240;51.370;-0.486;2023-11-19T16:30:05;1.90;;;0.88;;
71423;SDS011;59240;51.370;-0.486;2023-11-19T16:35:03;2.95;;;1.23;;
71423;SDS011;59240;51.370;-0.486;2023-11-19T16:40:00;5.28;;;1.05;;
71423;SDS011;59240;51.370;-0.486;2023-11-19T16:44:56;5.05;;;0.82;;
71423;SDS011;59240;51.370;-0.486;2023-11-19T16:49:53;5.13;;;1.25;;
71423;SDS011;59240;51.370;-0.486;2023-11-19T16:54:55;5.07;;;1.38;;
71423;SDS011;59240;51.370;-0.486;2023-11-19T16:59:52;3.45;;;1.10;;
71423;SDS011;59240;51.370;-0.486;2023-11-19T17:04:52;8.07;;;1.10;;
71423;SDS011;59240;51.370;-0.486;2023-11-19T17:09:49;7.00;;;1.65;;
71423;SDS011;59240;51.370;-0.486;2023-11-19T17:14:46;7.65;;;2.78;;
71423;SDS011;59240;51.370;-0.486;2023-11-19T17:19:43;6.38;;;1.63;;
71423;SDS011;59240;51.370;-0.486;2023-11-19T17:24:40;5.43;;;1.40;;
71423;SDS011;59240;51.370;-0.486;2023-11-19T17:29:37;6.35;;;1.77;;
71423;SDS011;59240;51.370;-0.486;2023-11-19T17:34:35;7.70;;;0.80;;
71423;SDS011;59240;51.370;-0.486;2023-11-19T17:39:32;7.97;;;1.58;;
71423;SDS011;59240;51.370;-0.486;2023-11-19T17:44:30;5.72;;;1.00;;
71423;SDS011;59240;51.370;-0.486;2023-11-19T17:49:27;7.32;;;1.00;;
71423;SDS011;59240;51.370;-0.486;2023-11-19T17:54:24;3.20;;;1.25;;
71423;SDS011;59240;51.370;-0.486;2023-11-19T17:59:21;3.78;;;1.10;;
71423;SDS011;59240;51.370;-0.486;2023-11-19T18:04:24;7.18;;;1.40;;
71423;SDS011;59240;51.370;-0.486;2023-11-19T18:09:22;2.30;;;1.02;;
71423;SDS011;59240;51.370;-0.486;2023-11-19T18:14:19;3.97;;;1.02;;
71423;SDS011;59240;51.370;-0.486;2023-11-19T18:19:16;8.65;;;2.30;;
71423;SDS011;59240;51.370;-0.486;2023-11-19T18:24:16;4.00;;;2.22;;
71423;SDS011;59240;51.370;-0.486;2023-11-19T18:29:13;8.50;;;1.30;;
71423;SDS011;59240;51.370;-0.486;2023-11-19T18:34:13;3.65;;;1.05;;
71423;SDS011;59240;51.370;-0.486;2023-11-19T18:39:10;5.22;;;1.48;;
71423;SDS011;59240;51.370;-0.486;2023-11-19T18:44:09;15.85;;;2.22;;
71423;SDS011;59240;51.370;-0.486;2023-11-19T18:49:06;3.58;;;1.60;;
71423;SDS011;59240;51.370;-0.486;2023-11-19T18:54:05;7.95;;;1.58;;
71423;SDS011;59240;51.370;-0.486;2023-11-19T18:59:03;5.95;;;2.17;;
71423;SDS011;59240;51.370;-0.486;2023-11-19T19:04:05;7.07;;;1.83;;
71423;SDS011;59240;51.370;-0.486;2023-11-19T19:09:06;9.98;;;2.30;;
71423;SDS011;59240;51.370;-0.486;2023-11-19T19:14:03;8.43;;;2.53;;
71423;SDS011;59240;51.370;-0.486;2023-11-19T19:19:01;10.32;;;1.65;;
71423;SDS011;59240;51.370;-0.486;2023-11-19T19:23:58;5.63;;;0.77;;
71423;SDS011;59240;51.370;-0.486;2023-11-19T19:29:00;8.32;;;1.55;;
71423;SDS011;59240;51.370;-0.486;2023-11-19T19:33:57;8.50;;;1.80;;
71423;SDS011;59240;51.370;-0.486;2023-11-19T19:38:55;6.03;;;1.58;;
71423;SDS011;59240;51.370;-0.486;2023-11-19T19:43:52;16.77;;;1.77;;
71423;SDS011;59240;51.370;-0.486;2023-11-19T19:48:48;4.18;;;1.30;;
71423;SDS011;59240;51.370;-0.486;2023-11-19T19:53:47;12.57;;;2.60;;
71423;SDS011;59240;51.370;-0.486;2023-11-19T19:58:44;10.13;;;2.13;;
71423;SDS011;59240;51.370;-0.486;2023-11-19T20:03:41;11.07;;;2.05;;
71423;SDS011;59240;51.370;-0.486;2023-11-19T20:08:38;9.93;;;1.50;;
71423;SDS011;59240;51.370;-0.486;2023-11-19T20:13:35;9.07;;;1.83;;
71423;SDS011;59240;51.370;-0.486;2023-11-19T20:18:33;6.30;;;1.67;;
71423;SDS011;59240;51.370;-0.486;2023-11-19T20:23:30;8.35;;;1.60;;
71423;SDS011;59240;51.370;-0.486;2023-11-19T20:28:27;10.52;;;2.20;;
71423;SDS011;59240;51.370;-0.486;2023-11-19T20:33:24;11.90;;;1.70;;
71423;SDS011;59240;51.370;-0.486;2023-11-19T20:38:22;13.18;;;2.08;;
71423;SDS011;59240;51.370;-0.486;2023-11-19T20:43:19;6.80;;;1.85;;
71423;SDS011;59240;51.370;-0.486;2023-11-19T20:48:18;11.10;;;1.67;;
71423;SDS011;59240;51.370;-0.486;2023-11-19T20:53:15;14.38;;;2.60;;
71423;SDS011;59240;51.370;-0.486;2023-11-19T20:58:12;4.95;;;1.02;;
71423;SDS011;59240;51.370;-0.486;2023-11-19T21:03:09;6.57;;;1.15;;
71423;SDS011;59240;51.370;-0.486;2023-11-19T21:08:07;2.85;;;0.70;;
71423;SDS011;59240;51.370;-0.486;2023-11-19T21:13:06;6.85;;;1.77;;
71423;SDS011;59240;51.370;-0.486;2023-11-19T21:18:03;11.10;;;1.73;;
71423;SDS011;59240;51.370;-0.486;2023-11-19T21:23:00;15.02;;;2.22;;
71423;SDS011;59240;51.370;-0.486;2023-11-19T21:27:57;9.23;;;1.35;;
71423;SDS011;59240;51.370;-0.486;2023-11-19T21:32:53;8.32;;;1.45;;
71423;SDS011;59240;51.370;-0.486;2023-11-19T21:37:50;13.75;;;2.85;;
71423;SDS011;59240;51.370;-0.486;2023-11-19T21:42:47;12.93;;;1.92;;
71423;SDS011;59240;51.370;-0.486;2023-11-19T21:47:44;12.77;;;1.50;;
71423;SDS011;59240;51.370;-0.486;2023-11-19T21:52:42;10.27;;;2.40;;
71423;SDS011;59240;51.370;-0.486;2023-11-19T21:57:40;7.55;;;1.10;;
71423;SDS011;59240;51.370;-0.486;2023-11-19T22:02:38;11.25;;;1.67;;
71423;SDS011;59240;51.370;-0.486;2023-11-19T22:07:35;9.68;;;1.55;;
71423;SDS011;59240;51.370;-0.486;2023-11-19T22:12:32;6.95;;;1.20;;
71423;SDS011;59240;51.370;-0.486;2023-11-19T22:17:29;11.43;;;1.90;;
71423;SDS011;59240;51.370;-0.486;2023-11-19T22:22:26;7.65;;;1.42;;
71423;SDS011;59240;51.370;-0.486;2023-11-19T22:27:23;7.38;;;1.52;;
71423;SDS011;59240;51.370;-0.486;2023-11-19T22:32:20;9.65;;;2.40;;
71423;SDS011;59240;51.370;-0.486;2023-11-19T22:37:20;5.25;;;1.58;;
71423;SDS011;59240;51.370;-0.486;2023-11-19T22:42:18;8.15;;;1.45;;
71423;SDS011;59240;51.370;-0.486;2023-11-19T22:47:16;11.27;;;1.50;;
71423;SDS011;59240;51.370;-0.486;2023-11-19T22:52:13;9.70;;;1.58;;
71423;SDS011;59240;51.370;-0.486;2023-11-19T22:57:10;4.35;;;1.20;;
71423;SDS011;59240;51.370;-0.486;2023-11-19T23:02:07;5.57;;;1.10;;
71423;SDS011;59240;51.370;-0.486;2023-11-19T23:07:04;6.75;;;1.40;;
71423;SDS011;59240;51.370;-0.486;2023-11-19T23:12:02;12.50;;;2.20;;
71423;SDS011;59240;51.370;-0.486;2023-11-19T23:17:01;15.02;;;1.65;;
71423;SDS011;59240;51.370;-0.486;2023-11-19T23:21:59;5.55;;;1.98;;
71423;SDS011;59240;51.370;-0.486;2023-11-19T23:26:56;8.15;;;1.30;;
71423;SDS011;59240;51.370;-0.486;2023-11-19T23:31:55;14.75;;;2.03;;
71423;SDS011;59240;51.370;-0.486;2023-11-19T23:36:52;8.90;;;1.48;;
71423;SDS011;59240;51.370;-0.486;2023-11-19T23:41:49;8.90;;;2.22;;
71423;SDS011;59240;51.370;-0.486;2023-11-19T23:46:45;9.82;;;1.52;;
71423;SDS011;59240;51.370;-0.486;2023-11-19T23:51:42;7.68;;;1.40;;
71423;SDS011;59240;51.370;-0.486;2023-11-19T23:56:39;10.05;;;2.00;;
